Oil Finn — OJ9326 — position and weather

sailwx.info

Track history (hours):
 
Tides and Currents Weather Stations Pressure Air Temp Water Temp Dewpoint Dewpoint Depression Visibility Wind Speed Wind Dir Waves Ship Positions

Oil Finn

Last reported at 2014-Oct-01 09:33 UTC. Time now 2014-Oct-31 16:31 UTC.
Position N 60°16' E 026°07'.
Warning: this ship's position is 30 days out of date.

Length 20 m; draft 2 m.

Type: Tanker. MMSI: 230033790.

Date/timePositionNaut miles runAvg speedWind from/ knotsBaromVisibWave heightAir tempDewpointWater temp
2014-Oct-01 09:33N 60°16' E 026°07'7 7.1
2014-Oct-01 08:33N 60°18' E 026°21'7 7.3
2014-Oct-01 07:33N 60°20' E 026°35'7 6.8
2014-Oct-01 06:33N 60°22' E 026°49'7 6.8
2014-Oct-01 05:33N 60°19' E 027°01'5 5.4
2014-Oct-01 04:33N 60°17' E 027°11'0 0.0
2014-Sep-30 15:07N 60°17' E 027°11'0 0.0
2014-Sep-30 14:33N 60°17' E 027°11'0 0.0
2014-Sep-30 13:29N 60°17' E 027°11'0 0.0
2014-Sep-30 12:34N 60°17' E 027°11'6 6.1
2014-Sep-30 11:33N 60°19' E 026°60'7 6.6
2014-Sep-30 10:34N 60°22' E 026°48'6 6.3
2014-Sep-30 09:33N 60°21' E 026°36'6 5.9
2014-Sep-30 08:33N 60°17' E 026°27'0 0.1
2014-Sep-30 06:17N 60°17' E 026°27'0 0.0
2014-Sep-30 04:31N 60°17' E 026°27'0 0.0
2014-Sep-30 03:31N 60°17' E 026°27'0 0.0
2014-Sep-30 02:17N 60°17' E 026°27'0 0.0
2014-Sep-30 01:33N 60°17' E 026°27'0 0.0
2014-Sep-30 00:33N 60°17' E 026°27'0 0.0
2014-Sep-29 23:33N 60°17' E 026°27'0 0.0
2014-Sep-29 22:33N 60°17' E 026°27'0 0.0
2014-Sep-29 21:33N 60°17' E 026°27'0 0.0
2014-Sep-29 20:33N 60°17' E 026°27'3 3.3
2014-Sep-29 19:33N 60°20' E 026°29'0 0.3
2014-Sep-29 18:33N 60°20' E 026°29'6 6.3
2014-Sep-29 17:34N 60°17' E 026°17'7 6.2
2014-Sep-29 16:22N 60°15' E 026°02'  
2014-Sep-22 07:16N 60°09' E 025°05'4 4.9
2014-Sep-22 06:33N 60°09' E 024°58'1 1.4
2014-Sep-22 05:33N 60°11' E 024°58'  
Track history (hours):
 
Tides and Currents Weather Stations Pressure Air Temp Water Temp Dewpoint Dewpoint Depression Visibility Wind Speed Wind Dir Waves Ship Positions

Oil Finn

Last reported at 2014-Oct-01 09:33 UTC. Time now 2014-Oct-31 16:31 UTC.
Position N 60°16' E 026°07'.
Warning: this ship's position is 30 days out of date.

Length 20 m; draft 2 m.

Type: Tanker. MMSI: 230033790.

Date/timePositionNaut miles runAvg speedWind from/ knotsBaromVisibWave heightAir tempDewpointWater temp
2014-Oct-01 09:33N 60°16' E 026°07'7 7.1
2014-Oct-01 08:33N 60°18' E 026°21'7 7.3
2014-Oct-01 07:33N 60°20' E 026°35'7 6.8
2014-Oct-01 06:33N 60°22' E 026°49'7 6.8
2014-Oct-01 05:33N 60°19' E 027°01'5 5.4
2014-Oct-01 04:33N 60°17' E 027°11'0 0.0
2014-Sep-30 15:07N 60°17' E 027°11'0 0.0
2014-Sep-30 14:33N 60°17' E 027°11'0 0.0
2014-Sep-30 13:29N 60°17' E 027°11'0 0.0
2014-Sep-30 12:34N 60°17' E 027°11'6 6.1
2014-Sep-30 11:33N 60°19' E 026°60'7 6.6
2014-Sep-30 10:34N 60°22' E 026°48'6 6.3
2014-Sep-30 09:33N 60°21' E 026°36'6 5.9
2014-Sep-30 08:33N 60°17' E 026°27'0 0.1
2014-Sep-30 06:17N 60°17' E 026°27'0 0.0
2014-Sep-30 04:31N 60°17' E 026°27'0 0.0
2014-Sep-30 03:31N 60°17' E 026°27'0 0.0
2014-Sep-30 02:17N 60°17' E 026°27'0 0.0
2014-Sep-30 01:33N 60°17' E 026°27'0 0.0
2014-Sep-30 00:33N 60°17' E 026°27'0 0.0
2014-Sep-29 23:33N 60°17' E 026°27'0 0.0
2014-Sep-29 22:33N 60°17' E 026°27'0 0.0
2014-Sep-29 21:33N 60°17' E 026°27'0 0.0
2014-Sep-29 20:33N 60°17' E 026°27'3 3.3
2014-Sep-29 19:33N 60°20' E 026°29'0 0.3
2014-Sep-29 18:33N 60°20' E 026°29'6 6.3
2014-Sep-29 17:34N 60°17' E 026°17'7 6.2
2014-Sep-29 16:22N 60°15' E 026°02'  
2014-Sep-22 07:16N 60°09' E 025°05'4 4.9
2014-Sep-22 06:33N 60°09' E 024°58'1 1.4
2014-Sep-22 05:33N 60°11' E 024°58'  

Dump ship's entire track history